sensor_id;sensor_type;location;lat;lon;timestamp;temperature;humidity
3980;DHT22;2004;52.452;13.120;2024-02-28T00:03:41;4.50;99.90
3980;DHT22;2004;52.452;13.120;2024-02-28T00:11:31;4.50;99.90
3980;DHT22;2004;52.452;13.120;2024-02-28T00:19:22;4.50;99.90
3980;DHT22;2004;52.452;13.120;2024-02-28T00:27:15;4.60;99.90
3980;DHT22;2004;52.452;13.120;2024-02-28T00:35:06;4.50;99.90
3980;DHT22;2004;52.452;13.120;2024-02-28T00:42:57;4.50;99.90
3980;DHT22;2004;52.452;13.120;2024-02-28T00:50:48;4.50;99.90
3980;DHT22;2004;52.452;13.120;2024-02-28T00:58:39;4.50;99.90
3980;DHT22;2004;52.452;13.120;2024-02-28T01:06:30;4.50;99.90
3980;DHT22;2004;52.452;13.120;2024-02-28T01:14:20;4.40;99.90
3980;DHT22;2004;52.452;13.120;2024-02-28T01:22:11;4.40;99.90
3980;DHT22;2004;52.452;13.120;2024-02-28T01:30:02;4.50;99.90
3980;DHT22;2004;52.452;13.120;2024-02-28T01:37:53;4.50;99.90
3980;DHT22;2004;52.452;13.120;2024-02-28T01:45:43;4.50;99.90
3980;DHT22;2004;52.452;13.120;2024-02-28T01:53:34;4.50;99.90
3980;DHT22;2004;52.452;13.120;2024-02-28T02:01:26;4.50;99.90
3980;DHT22;2004;52.452;13.120;2024-02-28T02:09:17;4.50;99.90
3980;DHT22;2004;52.452;13.120;2024-02-28T02:17:07;4.60;99.90
3980;DHT22;2004;52.452;13.120;2024-02-28T02:24:58;4.50;99.90
3980;DHT22;2004;52.452;13.120;2024-02-28T02:32:49;4.60;99.90
3980;DHT22;2004;52.452;13.120;2024-02-28T02:40:39;4.60;99.90
3980;DHT22;2004;52.452;13.120;2024-02-28T02:48:30;4.60;99.90
3980;DHT22;2004;52.452;13.120;2024-02-28T02:56:21;4.50;99.90
3980;DHT22;2004;52.452;13.120;2024-02-28T03:04:11;4.60;99.90
3980;DHT22;2004;52.452;13.120;2024-02-28T03:12:02;4.50;99.90
3980;DHT22;2004;52.452;13.120;2024-02-28T03:19:53;4.50;99.90
3980;DHT22;2004;52.452;13.120;2024-02-28T03:27:43;4.50;99.90
3980;DHT22;2004;52.452;13.120;2024-02-28T03:35:34;4.50;99.90
3980;DHT22;2004;52.452;13.120;2024-02-28T03:43:25;4.50;99.90
3980;DHT22;2004;52.452;13.120;2024-02-28T03:51:15;4.40;99.90
3980;DHT22;2004;52.452;13.120;2024-02-28T03:59:06;4.40;99.90
3980;DHT22;2004;52.452;13.120;2024-02-28T04:06:56;4.40;99.90
3980;DHT22;2004;52.452;13.120;2024-02-28T04:14:47;4.40;99.90
3980;DHT22;2004;52.452;13.120;2024-02-28T04:22:38;4.40;99.90
3980;DHT22;2004;52.452;13.120;2024-02-28T04:30:29;4.30;99.90
3980;DHT22;2004;52.452;13.120;2024-02-28T04:38:19;4.40;99.90
3980;DHT22;2004;52.452;13.120;2024-02-28T04:46:10;4.30;99.90
3980;DHT22;2004;52.452;13.120;2024-02-28T04:54:01;4.30;99.90
3980;DHT22;2004;52.452;13.120;2024-02-28T05:01:51;4.30;99.90
3980;DHT22;2004;52.452;13.120;2024-02-28T05:09:42;4.30;99.90
3980;DHT22;2004;52.452;13.120;2024-02-28T05:17:33;4.30;99.90
3980;DHT22;2004;52.452;13.120;2024-02-28T05:25:24;4.20;99.90
3980;DHT22;2004;52.452;13.120;2024-02-28T05:33:14;4.20;99.90
3980;DHT22;2004;52.452;13.120;2024-02-28T05:41:05;4.20;99.90
3980;DHT22;2004;52.452;13.120;2024-02-28T05:48:56;4.20;99.90
3980;DHT22;2004;52.452;13.120;2024-02-28T05:56:46;4.20;99.90
3980;DHT22;2004;52.452;13.120;2024-02-28T06:04:37;4.20;99.90
3980;DHT22;2004;52.452;13.120;2024-02-28T06:12:28;4.10;99.90
3980;DHT22;2004;52.452;13.120;2024-02-28T06:20:18;4.10;99.90
3980;DHT22;2004;52.452;13.120;2024-02-28T06:28:09;4.10;99.90
3980;DHT22;2004;52.452;13.120;2024-02-28T06:36:00;4.10;99.90
3980;DHT22;2004;52.452;13.120;2024-02-28T06:43:51;4.10;99.90
3980;DHT22;2004;52.452;13.120;2024-02-28T06:51:43;4.00;99.90
3980;DHT22;2004;52.452;13.120;2024-02-28T06:59:34;3.90;99.90
3980;DHT22;2004;52.452;13.120;2024-02-28T07:07:25;3.80;99.90
3980;DHT22;2004;52.452;13.120;2024-02-28T07:15:15;3.70;99.90
3980;DHT22;2004;52.452;13.120;2024-02-28T07:23:09;3.70;99.90
3980;DHT22;2004;52.452;13.120;2024-02-28T07:31:00;3.60;99.90
3980;DHT22;2004;52.452;13.120;2024-02-28T07:38:50;3.60;99.90
3980;DHT22;2004;52.452;13.120;2024-02-28T07:46:42;3.60;99.90
3980;DHT22;2004;52.452;13.120;2024-02-28T07:54:33;3.60;99.90
3980;DHT22;2004;52.452;13.120;2024-02-28T08:02:24;3.50;99.90
3980;DHT22;2004;52.452;13.120;2024-02-28T08:10:14;3.50;99.90
3980;DHT22;2004;52.452;13.120;2024-02-28T08:18:05;3.40;99.90
3980;DHT22;2004;52.452;13.120;2024-02-28T08:25:57;3.50;99.90
3980;DHT22;2004;52.452;13.120;2024-02-28T08:33:48;3.50;99.90
3980;DHT22;2004;52.452;13.120;2024-02-28T08:41:39;3.50;99.90
3980;DHT22;2004;52.452;13.120;2024-02-28T08:49:29;3.50;99.90
3980;DHT22;2004;52.452;13.120;2024-02-28T08:57:21;3.60;99.90
3980;DHT22;2004;52.452;13.120;2024-02-28T09:05:13;3.60;99.90
3980;DHT22;2004;52.452;13.120;2024-02-28T09:13:04;3.70;99.90
3980;DHT22;2004;52.452;13.120;2024-02-28T09:20:57;3.80;99.90
3980;DHT22;2004;52.452;13.120;2024-02-28T09:28:47;3.90;99.90
3980;DHT22;2004;52.452;13.120;2024-02-28T09:36:42;3.90;99.90
3980;DHT22;2004;52.452;13.120;2024-02-28T09:44:34;3.90;99.90
3980;DHT22;2004;52.452;13.120;2024-02-28T09:52:24;4.00;99.90
3980;DHT22;2004;52.452;13.120;2024-02-28T10:00:19;4.00;99.90
3980;DHT22;2004;52.452;13.120;2024-02-28T10:08:11;4.00;99.90
3980;DHT22;2004;52.452;13.120;2024-02-28T10:16:06;4.00;99.90
3980;DHT22;2004;52.452;13.120;2024-02-28T10:23:58;4.00;99.90
3980;DHT22;2004;52.452;13.120;2024-02-28T10:31:49;4.00;99.90
3980;DHT22;2004;52.452;13.120;2024-02-28T10:39:41;4.00;99.90
3980;DHT22;2004;52.452;13.120;2024-02-28T10:47:33;4.00;99.90
3980;DHT22;2004;52.452;13.120;2024-02-28T10:55:24;4.00;99.90
3980;DHT22;2004;52.452;13.120;2024-02-28T11:03:16;4.10;99.90
3980;DHT22;2004;52.452;13.120;2024-02-28T11:11:08;4.10;99.90
3980;DHT22;2004;52.452;13.120;2024-02-28T11:19:01;4.00;99.90
3980;DHT22;2004;52.452;13.120;2024-02-28T11:26:55;4.00;99.90
3980;DHT22;2004;52.452;13.120;2024-02-28T11:34:45;4.00;99.90
3980;DHT22;2004;52.452;13.120;2024-02-28T11:42:38;4.10;99.90
3980;DHT22;2004;52.452;13.120;2024-02-28T11:50:29;4.10;99.90
3980;DHT22;2004;52.452;13.120;2024-02-28T11:58:21;4.10;99.90
3980;DHT22;2004;52.452;13.120;2024-02-28T12:06:15;4.10;99.90
3980;DHT22;2004;52.452;13.120;2024-02-28T12:14:09;4.20;99.90
3980;DHT22;2004;52.452;13.120;2024-02-28T12:22:06;4.30;99.90
3980;DHT22;2004;52.452;13.120;2024-02-28T12:30:15;4.30;99.90
3980;DHT22;2004;52.452;13.120;2024-02-28T12:38:08;4.30;99.90
3980;DHT22;2004;52.452;13.120;2024-02-28T12:45:59;4.30;99.90
3980;DHT22;2004;52.452;13.120;2024-02-28T12:53:53;4.30;99.90
3980;DHT22;2004;52.452;13.120;2024-02-28T13:01:48;4.30;99.90
3980;DHT22;2004;52.452;13.120;2024-02-28T13:09:39;4.30;99.90
3980;DHT22;2004;52.452;13.120;2024-02-28T13:17:32;4.40;99.90
3980;DHT22;2004;52.452;13.120;2024-02-28T13:25:30;4.40;99.90
3980;DHT22;2004;52.452;13.120;2024-02-28T13:33:38;4.50;99.90
3980;DHT22;2004;52.452;13.120;2024-02-28T13:41:39;4.50;99.90
3980;DHT22;2004;52.452;13.120;2024-02-28T13:49:31;4.50;99.90
3980;DHT22;2004;52.452;13.120;2024-02-28T13:57:26;4.60;99.90
3980;DHT22;2004;52.452;13.120;2024-02-28T14:05:17;4.70;99.90
3980;DHT22;2004;52.452;13.120;2024-02-28T14:13:09;4.70;99.90
3980;DHT22;2004;52.452;13.120;2024-02-28T14:21:10;4.80;99.90
3980;DHT22;2004;52.452;13.120;2024-02-28T14:29:07;4.90;99.90
3980;DHT22;2004;52.452;13.120;2024-02-28T14:36:58;4.90;99.90
3980;DHT22;2004;52.452;13.120;2024-02-28T14:44:49;5.00;99.90
3980;DHT22;2004;52.452;13.120;2024-02-28T14:52:42;5.00;99.90
3980;DHT22;2004;52.452;13.120;2024-02-28T15:00:36;5.00;99.90
3980;DHT22;2004;52.452;13.120;2024-02-28T15:08:28;5.00;99.90
3980;DHT22;2004;52.452;13.120;2024-02-28T15:16:18;5.00;99.90
3980;DHT22;2004;52.452;13.120;2024-02-28T15:24:11;5.00;99.90
3980;DHT22;2004;52.452;13.120;2024-02-28T15:32:03;5.00;99.90
3980;DHT22;2004;52.452;13.120;2024-02-28T15:39:53;5.10;99.90
3980;DHT22;2004;52.452;13.120;2024-02-28T15:47:45;5.00;99.90
3980;DHT22;2004;52.452;13.120;2024-02-28T15:55:38;5.00;99.90
3980;DHT22;2004;52.452;13.120;2024-02-28T16:03:28;5.00;99.90
3980;DHT22;2004;52.452;13.120;2024-02-28T16:11:20;5.00;99.90
3980;DHT22;2004;52.452;13.120;2024-02-28T16:19:10;5.00;99.90
3980;DHT22;2004;52.452;13.120;2024-02-28T16:27:05;4.90;99.90
3980;DHT22;2004;52.452;13.120;2024-02-28T16:34:58;4.80;99.90
3980;DHT22;2004;52.452;13.120;2024-02-28T16:42:49;4.70;99.90
3980;DHT22;2004;52.452;13.120;2024-02-28T16:50:42;4.60;99.90
3980;DHT22;2004;52.452;13.120;2024-02-28T16:58:33;4.40;99.90
3980;DHT22;2004;52.452;13.120;2024-02-28T17:06:29;4.30;99.90
3980;DHT22;2004;52.452;13.120;2024-02-28T17:14:29;4.20;99.90
3980;DHT22;2004;52.452;13.120;2024-02-28T17:22:20;4.00;99.90
3980;DHT22;2004;52.452;13.120;2024-02-28T17:30:19;3.90;99.90
3980;DHT22;2004;52.452;13.120;2024-02-28T17:38:12;3.70;99.90
3980;DHT22;2004;52.452;13.120;2024-02-28T17:46:03;3.60;99.90
3980;DHT22;2004;52.452;13.120;2024-02-28T17:54:03;3.50;99.90
3980;DHT22;2004;52.452;13.120;2024-02-28T18:10:16;3.20;99.90
3980;DHT22;2004;52.452;13.120;2024-02-28T18:18:07;3.10;99.90
3980;DHT22;2004;52.452;13.120;2024-02-28T18:25:59;3.00;99.90
3980;DHT22;2004;52.452;13.120;2024-02-28T18:33:52;2.90;99.90
3980;DHT22;2004;52.452;13.120;2024-02-28T18:41:43;2.80;99.90
3980;DHT22;2004;52.452;13.120;2024-02-28T18:49:35;2.70;99.90
3980;DHT22;2004;52.452;13.120;2024-02-28T18:57:28;2.60;99.90
3980;DHT22;2004;52.452;13.120;2024-02-28T19:05:19;2.60;99.90
3980;DHT22;2004;52.452;13.120;2024-02-28T19:13:11;2.50;99.90
3980;DHT22;2004;52.452;13.120;2024-02-28T19:21:06;2.40;99.90
3980;DHT22;2004;52.452;13.120;2024-02-28T19:28:59;2.40;99.90
3980;DHT22;2004;52.452;13.120;2024-02-28T19:36:52;2.30;99.90
3980;DHT22;2004;52.452;13.120;2024-02-28T19:44:49;2.30;99.90
3980;DHT22;2004;52.452;13.120;2024-02-28T19:52:43;2.20;99.90
3980;DHT22;2004;52.452;13.120;2024-02-28T20:00:34;2.10;99.90
3980;DHT22;2004;52.452;13.120;2024-02-28T20:08:26;2.10;99.90
3980;DHT22;2004;52.452;13.120;2024-02-28T20:16:17;2.10;99.90
3980;DHT22;2004;52.452;13.120;2024-02-28T20:24:07;2.00;99.90
3980;DHT22;2004;52.452;13.120;2024-02-28T20:32:01;2.10;99.90
3980;DHT22;2004;52.452;13.120;2024-02-28T20:39:52;2.20;99.90
3980;DHT22;2004;52.452;13.120;2024-02-28T20:47:43;2.20;99.90
3980;DHT22;2004;52.452;13.120;2024-02-28T20:55:33;2.20;99.90
3980;DHT22;2004;52.452;13.120;2024-02-28T21:03:24;2.20;99.90
3980;DHT22;2004;52.452;13.120;2024-02-28T21:11:16;2.20;99.90
3980;DHT22;2004;52.452;13.120;2024-02-28T21:19:07;2.20;99.90
3980;DHT22;2004;52.452;13.120;2024-02-28T21:26:58;2.20;99.90
3980;DHT22;2004;52.452;13.120;2024-02-28T21:34:49;2.20;99.90
3980;DHT22;2004;52.452;13.120;2024-02-28T21:42:42;2.10;99.90
3980;DHT22;2004;52.452;13.120;2024-02-28T21:50:37;2.10;99.90
3980;DHT22;2004;52.452;13.120;2024-02-28T21:58:29;2.00;99.90
3980;DHT22;2004;52.452;13.120;2024-02-28T22:06:26;2.00;99.90
3980;DHT22;2004;52.452;13.120;2024-02-28T22:14:17;2.10;99.90
3980;DHT22;2004;52.452;13.120;2024-02-28T22:22:07;2.00;99.90
3980;DHT22;2004;52.452;13.120;2024-02-28T22:29:58;2.10;99.90
3980;DHT22;2004;52.452;13.120;2024-02-28T22:37:49;2.10;99.90
3980;DHT22;2004;52.452;13.120;2024-02-28T22:45:40;2.10;99.90
3980;DHT22;2004;52.452;13.120;2024-02-28T22:53:35;2.00;99.90
3980;DHT22;2004;52.452;13.120;2024-02-28T23:01:30;2.00;99.90
3980;DHT22;2004;52.452;13.120;2024-02-28T23:09:24;1.80;99.90
3980;DHT22;2004;52.452;13.120;2024-02-28T23:17:14;1.70;99.90
3980;DHT22;2004;52.452;13.120;2024-02-28T23:25:09;1.60;99.90
3980;DHT22;2004;52.452;13.120;2024-02-28T23:33:00;1.50;99.90
3980;DHT22;2004;52.452;13.120;2024-02-28T23:40:55;1.40;99.90
3980;DHT22;2004;52.452;13.120;2024-02-28T23:48:46;1.40;99.90
3980;DHT22;2004;52.452;13.120;2024-02-28T23:56:37;1.30;99.90
